Hauptseite
METAR-TAF:

METAR-TAF

Flughäfen :

Karachi/Jinnah International Airport

Karatschi, Pakistan

Breite: 24-54N, Länge: 067-08E, Höhe: 21 m

Beobachtung

Neuester Wetterbericht von vor 15 Minuten, um 03:55 UTC
Wind 10 kt aus West/Südwest
Temperatur 31°C
Luftfeuchtigkeit 66%
Luftdruck 1001 hPa
Sichtweite: 5000 m
Durchbrochene Bewölkung in der Höhe von 2000 ft
Rauch

METAR: OPKC 230355Z 24010KT 5000 FU BKN020 31/24 Q1001 NOSIG

Zeit: 09:10 (04:10 UTC)

Prognose

Neuester Wetterbericht von vor 3 Stunden und 40 Minuten, um 00:30 UTC
Gültige Prognose vom 23 um 03 UTC bis 23 um 12 UTC
Wind 8 kt aus Südwest, Böen bis zu 18 kt
Sichtweite: 6000 m
Durchbrochene Bewölkung in der Höhe von 2000 ft

TAF: OPKC 230030Z 2303/2312 23008G18KT 6000 BKN020

Wetterbeobachtungen und Prognosen von mehr als 4000 Flughäfen (METAR und TAF Bericht).

Die verfügbaren Stationen werden durch gelbe und rote Markierungen auf der Karte dargestellt.

Führen Sie die Maus auf sie, um den Namen der Station zu sehen.

Darauf klicken, um die Beobachtung von Wetterbeobachtungen und Prognosen zu sehen.

Um die Karte zu ändern : klicken Sie auf den grünen Tasten mit einem schwarzen Kreuz Zum Vergrößern, auf den grünen Button mit einem Gedankenstrich zu verkleinern, oder auf die grünen Pfeile für benachbarte Karten.


METAR-TAF: